Time;durP1;ratioP1;P1;durP2;ratioP2;P2;SDS_P1;SDS_P2;PMS_P1;PMS_P2;Temp;Humidity;BMP_temperature;BMP_pressure;BME280_temperature;BME280_humidity;BME280_pressure;Samples;Min_cycle;Max_cycle;Signal;HPM_P1;HPM_P2
2022/01/31 00:00:10;;;;;;;27.95;19.73;;;;;;;-0.55;100.00;99323.34;1766974;80;20984;-79
2022/01/31 00:02:42;;;;;;;27.07;19.07;;;;;;;-0.54;100.00;99313.02;1762628;80;21631;-80
2022/01/31 00:05:10;;;;;;;25.08;18.82;;;;;;;-0.53;100.00;99320.27;1738669;80;21090;-80
2022/01/31 00:07:39;;;;;;;28.00;20.50;;;;;;;-0.51;100.00;99305.64;1736035;79;20992;-79
2022/01/31 00:10:10;;;;;;;27.20;19.98;;;;;;;-0.52;100.00;99288.67;1766904;80;21012;-79
2022/01/31 00:13:05;;;;;;;30.05;20.45;;;;;;;-0.53;100.00;99301.08;1766995;80;21012;-79
2022/01/31 00:15:10;;;;;;;26.23;20.55;;;;;;;-0.53;100.00;99313.87;1710556;81;20988;-80
2022/01/31 00:17:39;;;;;;;27.62;20.60;;;;;;;-0.55;100.00;99306.72;1767159;80;21024;-79
2022/01/31 00:20:08;;;;;;;29.18;20.23;;;;;;;-0.57;100.00;99308.52;1743695;80;21050;-79
2022/01/31 00:22:36;;;;;;;30.97;21.12;;;;;;;-0.56;100.00;99307.61;1783130;80;21090;-80
2022/01/31 00:25:05;;;;;;;27.87;19.52;;;;;;;-0.54;100.00;99291.75;1783344;80;21019;-81
2022/01/31 00:27:32;;;;;;;28.15;20.35;;;;;;;-0.55;100.00;99285.80;1783138;79;21157;-80
2022/01/31 00:29:58;;;;;;;25.88;19.35;;;;;;;-0.58;100.00;99278.73;1783548;80;21023;-80
2022/01/31 00:32:29;;;;;;;23.95;18.73;;;;;;;-0.58;100.00;99277.45;1783000;80;21051;-80
2022/01/31 00:34:55;;;;;;;25.80;18.40;;;;;;;-0.59;100.00;99283.46;1783144;79;21074;-79
2022/01/31 00:37:24;;;;;;;24.37;17.90;;;;;;;-0.63;100.00;99294.30;1783303;80;21011;-80
2022/01/31 00:39:51;;;;;;;24.07;17.98;;;;;;;-0.64;100.00;99292.64;1783472;80;21573;-80
2022/01/31 00:42:19;;;;;;;23.55;18.25;;;;;;;-0.67;100.00;99299.20;1783528;80;21160;-79
2022/01/31 00:44:53;;;;;;;23.22;18.20;;;;;;;-0.69;100.00;99302.28;1756776;80;21916;-80
2022/01/31 00:47:24;;;;;;;27.55;17.30;;;;;;;-0.70;100.00;99291.23;1782350;80;20999;-79
2022/01/31 00:50:08;;;;;;;23.57;17.50;;;;;;;-0.72;100.00;99293.03;1756633;80;21593;-79
2022/01/31 00:52:37;;;;;;;22.50;17.60;;;;;;;-0.70;100.00;99283.57;1782656;80;21051;-80
2022/01/31 00:55:10;;;;;;;23.25;17.60;;;;;;;-0.74;100.00;99278.22;1782836;80;20983;-79
2022/01/31 00:57:42;;;;;;;24.85;16.50;;;;;;;-0.76;100.00;99274.91;1776932;80;21623;-81
2022/01/31 01:00:12;;;;;;;23.70;17.07;;;;;;;-0.78;100.00;99271.62;1769152;81;21055;-79
2022/01/31 01:02:39;;;;;;;21.35;16.42;;;;;;;-0.82;100.00;99275.21;1768655;80;21089;-80
2022/01/31 01:05:08;;;;;;;23.38;17.35;;;;;;;-0.84;100.00;99270.19;1768886;80;21130;-79
2022/01/31 01:07:36;;;;;;;22.05;15.85;;;;;;;-0.88;100.00;99275.52;1769208;81;21418;-79
2022/01/31 01:10:05;;;;;;;20.40;15.13;;;;;;;-0.92;100.00;99277.41;1738528;81;20980;-80
2022/01/31 01:12:33;;;;;;;27.45;16.90;;;;;;;-0.97;100.00;99281.45;1738770;81;21032;-79
2022/01/31 01:15:00;;;;;;;22.95;16.32;;;;;;;-0.97;100.00;99277.63;1779462;80;21042;-79
2022/01/31 01:17:29;;;;;;;24.85;16.23;;;;;;;-0.99;100.00;99277.33;1784204;80;21037;-79
2022/01/31 01:19:56;;;;;;;23.95;16.00;;;;;;;-1.03;100.00;99278.36;1751465;80;20940;-79
2022/01/31 01:22:23;;;;;;;20.12;14.80;;;;;;;-1.06;100.00;99279.34;1756438;80;21088;-79
2022/01/31 01:24:50;;;;;;;22.80;15.93;;;;;;;-1.07;100.00;99275.13;1751442;81;22044;-79
2022/01/31 01:27:20;;;;;;;22.30;16.80;;;;;;;-1.07;100.00;99275.59;1779718;80;21005;-79
2022/01/31 01:29:48;;;;;;;22.95;16.10;;;;;;;-1.08;100.00;99282.42;1784610;80;21061;-81
2022/01/31 01:32:18;;;;;;;25.77;16.90;;;;;;;-1.09;100.00;99279.95;1746816;81;21845;-79
2022/01/31 01:34:45;;;;;;;24.05;16.32;;;;;;;-1.08;100.00;99286.72;1749237;82;21559;-79
2022/01/31 01:37:12;;;;;;;23.40;15.58;;;;;;;-1.05;100.00;99291.69;1784565;80;21084;-79
2022/01/31 01:39:41;;;;;;;20.50;15.20;;;;;;;-1.02;100.00;99288.53;1784729;80;21100;-80
2022/01/31 01:42:08;;;;;;;20.85;15.78;;;;;;;-1.00;100.00;99282.06;1777933;80;22647;-79
2022/01/31 01:44:47;;;;;;;22.42;15.70;;;;;;;-0.98;100.00;99286.19;1784230;80;21050;-79
2022/01/31 01:47:19;;;;;;;23.18;15.98;;;;;;;-0.98;100.00;99277.25;1783763;80;21089;-79
2022/01/31 01:49:47;;;;;;;26.47;16.47;;;;;;;-0.97;100.00;99269.96;1752520;80;21041;-80
2022/01/31 01:52:17;;;;;;;22.45;16.32;;;;;;;-0.96;100.00;99267.78;1784491;80;21037;-79
2022/01/31 01:54:48;;;;;;;22.85;16.52;;;;;;;-0.98;100.00;99267.02;1784169;80;21068;-80
2022/01/31 01:57:16;;;;;;;;;;;;;;;-0.99;100.00;99253.87;1786915;80;21234;-80
2022/01/31 01:59:44;;;;;;;20.85;15.35;;;;;;;-0.99;100.00;99247.48;1784569;80;21145;-79
2022/01/31 02:02:16;;;;;;;22.95;15.88;;;;;;;-0.99;100.00;99237.25;1782659;80;21579;-80
2022/01/31 02:04:43;;;;;;;22.98;15.28;;;;;;;-1.00;100.00;99235.59;1751219;80;21100;-80
2022/01/31 02:07:13;;;;;;;23.18;16.67;;;;;;;-1.00;100.00;99238.16;1743899;80;21029;-79
2022/01/31 02:09:52;;;;;;;22.55;14.93;;;;;;;-0.99;100.00;99235.16;1713788;82;21053;-79
2022/01/31 02:12:12;;;;;;;24.02;15.75;;;;;;;-0.99;100.00;99237.25;1740991;81;21152;-80
2022/01/31 02:14:40;;;;;;;22.13;15.78;;;;;;;-1.00;100.00;99242.45;1745007;81;21577;-80
2022/01/31 02:17:27;;;;;;;19.07;14.43;;;;;;;-1.03;100.00;99233.21;1744719;81;21044;-79
2022/01/31 02:19:59;;;;;;;20.68;15.15;;;;;;;-1.05;100.00;99222.23;1742339;82;21076;-79
2022/01/31 02:22:28;;;;;;;23.00;15.68;;;;;;;-1.06;100.00;99224.41;1746448;80;21502;-80
2022/01/31 02:25:04;;;;;;;21.73;15.53;;;;;;;-1.07;100.00;99224.03;1749282;81;21322;-81
2022/01/31 02:27:41;;;;;;;;;;;;;;;-1.08;100.00;99218.54;1772005;80;21018;-80
2022/01/31 02:30:15;;;;;;;22.25;15.23;;;;;;;-1.04;100.00;99219.25;1784686;80;20169;-81
2022/01/31 02:32:44;;;;;;;23.62;15.60;;;;;;;-1.02;100.00;99207.20;1779297;80;21001;-79
2022/01/31 02:35:12;;;;;;;23.87;15.18;;;;;;;-0.99;100.00;99207.87;1784557;80;21041;-80
2022/01/31 02:37:40;;;;;;;23.62;14.93;;;;;;;-0.97;100.00;99212.92;1784584;80;21948;-80
2022/01/31 02:40:24;;;;;;;21.25;15.35;;;;;;;-0.94;100.00;99214.50;1783879;80;21485;-80
2022/01/31 02:42:52;;;;;;;24.90;16.37;;;;;;;-0.92;100.00;99217.81;1784532;80;21084;-80
2022/01/31 02:45:20;;;;;;;22.22;16.12;;;;;;;-0.90;100.00;99209.59;1784438;80;21092;-81
2022/01/31 02:47:53;;;;;;;20.45;15.10;;;;;;;-0.90;100.00;99213.42;1771759;80;21072;-79
2022/01/31 02:50:16;;;;;;;22.02;15.85;;;;;;;-0.90;100.00;99213.42;1716787;81;21024;-79
2022/01/31 02:52:56;;;;;;;23.52;16.40;;;;;;;-0.91;100.00;99215.60;1751860;81;21012;-79
2022/01/31 02:55:12;;;;;;;22.45;16.77;;;;;;;-0.90;100.00;99207.87;1784523;80;21033;-81
2022/01/31 02:57:40;;;;;;;23.18;16.30;;;;;;;-0.89;100.00;99203.58;1789989;80;21036;-81
2022/01/31 03:00:10;;;;;;;25.02;16.02;;;;;;;-0.89;100.00;99208.69;1784773;80;21068;-81
2022/01/31 03:02:40;;;;;;;23.73;14.85;;;;;;;-0.90;100.00;99200.64;1789928;80;21563;-79
2022/01/31 03:05:09;;;;;;;22.13;15.85;;;;;;;-0.91;100.00;99199.83;1790074;80;21123;-80
2022/01/31 03:07:36;;;;;;;20.32;15.65;;;;;;;-0.90;100.00;99203.20;1790459;80;21558;-80
2022/01/31 03:10:05;;;;;;;26.20;16.17;;;;;;;-0.92;100.00;99199.92;1752348;80;21561;-80
2022/01/31 03:12:32;;;;;;;25.25;15.90;;;;;;;-0.93;100.00;99208.48;1711355;82;21057;-79
2022/01/31 03:15:03;;;;;;;22.60;16.27;;;;;;;-0.92;100.00;99207.59;1743011;82;21543;-79
2022/01/31 03:17:49;;;;;;;23.30;16.32;;;;;;;-0.93;100.00;99205.47;1697661;84;21085;-80
2022/01/31 03:20:20;;;;;;;26.00;16.87;;;;;;;-0.90;100.00;99206.59;1727919;81;21510;-80
2022/01/31 03:22:48;;;;;;;24.07;16.45;;;;;;;-0.89;100.00;99203.14;1742644;80;21017;-80
2022/01/31 03:25:16;;;;;;;23.47;17.40;;;;;;;-0.87;100.00;99199.23;1742762;81;21005;-79
2022/01/31 03:27:46;;;;;;;24.02;16.87;;;;;;;-0.84;100.00;99206.28;1742045;81;21144;-80
2022/01/31 03:30:19;;;;;;;24.65;17.32;;;;;;;-0.82;100.00;99203.20;1742769;80;21171;-80
2022/01/31 03:32:49;;;;;;;21.93;16.50;;;;;;;-0.79;100.00;99200.94;1710715;82;21056;-80
2022/01/31 03:35:17;;;;;;;27.22;17.52;;;;;;;-0.76;100.00;99194.84;1716105;80;21104;-80
2022/01/31 03:37:45;;;;;;;22.77;17.37;;;;;;;-0.72;100.00;99198.45;1751721;80;21164;-80
2022/01/31 03:40:14;;;;;;;26.45;18.02;;;;;;;-0.73;100.00;99189.12;1783483;80;21158;-80
2022/01/31 03:42:41;;;;;;;22.20;16.60;;;;;;;-0.72;100.00;99184.84;1750982;80;21062;-79
2022/01/31 03:45:10;;;;;;;24.52;17.20;;;;;;;-0.71;100.00;99192.44;1752359;80;20994;-80
2022/01/31 03:47:44;;;;;;;23.38;16.52;;;;;;;-0.70;100.00;99186.85;1784959;80;21108;-81
2022/01/31 03:50:07;;;;;;;25.55;17.98;;;;;;;-0.69;100.00;99180.41;1746806;81;21050;-80
2022/01/31 03:52:35;;;;;;;27.58;17.92;;;;;;;-0.68;100.00;99182.03;1743146;82;22256;-79
2022/01/31 03:55:02;;;;;;;25.62;18.07;;;;;;;-0.66;100.00;99182.78;1749873;82;21976;-80
2022/01/31 03:57:31;;;;;;;24.35;17.32;;;;;;;-0.64;100.00;99185.25;1784301;80;21025;-81
2022/01/31 04:00:13;;;;;;;24.27;17.85;;;;;;;-0.61;100.00;99187.66;1716544;82;21097;-79
2022/01/31 04:02:46;;;;;;;26.50;17.48;;;;;;;-0.59;100.00;99181.18;1720105;82;21094;-82
2022/01/31 04:05:13;;;;;;;28.02;18.87;;;;;;;-0.56;100.00;99183.59;1720571;82;21819;-81
2022/01/31 04:07:40;;;;;;;24.37;17.42;;;;;;;-0.54;100.00;99184.34;1722587;81;21024;-82
2022/01/31 04:10:10;;;;;;;28.07;18.25;;;;;;;-0.53;100.00;99177.86;1729244;81;21048;-82
2022/01/31 04:12:37;;;;;;;30.75;19.60;;;;;;;-0.51;100.00;99181.17;1759192;81;21566;-81
2022/01/31 04:15:09;;;;;;;24.67;17.75;;;;;;;-0.51;100.00;99173.50;1759706;81;21159;-81
2022/01/31 04:17:38;;;;;;;28.50;19.20;;;;;;;-0.50;100.00;99175.16;1758903;81;21817;-81
2022/01/31 04:20:08;;;;;;;30.70;20.30;;;;;;;-0.47;100.00;99175.44;1728923;81;21089;-82
2022/01/31 04:22:43;;;;;;;26.15;18.55;;;;;;;-0.46;100.00;99169.43;1759315;81;21065;-81
2022/01/31 04:25:16;;;;;;;27.67;18.40;;;;;;;-0.44;100.00;99165.03;1749819;81;21017;-79
2022/01/31 04:27:44;;;;;;;27.58;20.10;;;;;;;-0.39;100.00;99171.19;1758080;81;21108;-80
2022/01/31 04:30:06;;;;;;;28.80;19.48;;;;;;;-0.16;100.00;99176.38;1758774;81;21818;-80
2022/01/31 04:32:36;;;;;;;51.10;28.65;;;;;;;0.04;100.00;99179.60;1759062;81;21072;-80
2022/01/31 04:35:04;;;;;;;33.40;19.98;;;;;;;0.05;100.00;99173.55;1729941;81;21594;-79
2022/01/31 04:37:32;;;;;;;28.60;19.62;;;;;;;0.04;100.00;99170.17;1759319;81;21006;-80
2022/01/31 04:40:05;;;;;;;30.48;19.52;;;;;;;-0.05;100.00;99179.19;1777472;80;21498;-80
2022/01/31 04:42:31;;;;;;;39.00;22.20;;;;;;;-0.12;100.00;99171.45;1788908;79;21152;-80
2022/01/31 04:45:01;;;;;;;29.75;18.67;;;;;;;-0.17;100.00;99165.76;1793929;79;21021;-81
2022/01/31 04:47:27;;;;;;;27.40;19.02;;;;;;;-0.12;100.00;99159.93;1793262;80;20990;-79
2022/01/31 04:49:53;;;;;;;29.70;18.87;;;;;;;-0.09;100.00;99164.89;1768961;80;21021;-81
2022/01/31 04:52:20;;;;;;;26.37;18.98;;;;;;;0.04;100.00;99158.66;1728712;81;20957;-78
2022/01/31 04:54:47;;;;;;;31.30;18.42;;;;;;;0.12;100.00;99158.25;1756311;80;21117;-78
2022/01/31 04:57:14;;;;;;;29.85;19.55;;;;;;;0.07;100.00;99148.27;1758641;81;21475;-78
2022/01/31 04:59:43;;;;;;;29.25;19.90;;;;;;;-0.01;100.00;99156.81;1780195;80;21506;-77
2022/01/31 05:02:10;;;;;;;30.32;19.95;;;;;;;-0.08;100.00;99146.08;1782794;80;21033;-78
2022/01/31 05:04:37;;;;;;;28.70;19.32;;;;;;;-0.12;100.00;99161.67;1733826;80;21041;-78
2022/01/31 05:07:04;;;;;;;26.62;18.90;;;;;;;-0.18;100.00;99166.23;1758487;81;21181;-77
2022/01/31 05:09:31;;;;;;;25.02;18.60;;;;;;;-0.23;100.00;99163.07;1758652;81;20986;-78
2022/01/31 05:11:58;;;;;;;28.20;19.12;;;;;;;-0.27;100.00;99173.11;1758606;81;21092;-78
2022/01/31 05:14:25;;;;;;;29.92;19.75;;;;;;;-0.28;100.00;99166.81;1757627;80;21085;-77
2022/01/31 05:16:52;;;;;;;27.85;20.05;;;;;;;-0.28;100.00;99170.64;1765359;80;21057;-77
2022/01/31 05:19:19;;;;;;;31.30;20.97;;;;;;;-0.31;100.00;99166.49;1758661;81;21588;-77
2022/01/31 05:21:46;;;;;;;26.25;20.15;;;;;;;-0.30;100.00;99169.42;1759258;81;21542;-77
2022/01/31 05:24:12;;;;;;;29.52;21.93;;;;;;;-0.32;100.00;99170.80;1758468;81;21045;-78
2022/01/31 05:26:40;;;;;;;31.42;22.52;;;;;;;-0.33;100.00;99169.61;1753262;81;21045;-78
2022/01/31 05:29:12;;;;;;;27.55;20.43;;;;;;;-0.33;100.00;99172.98;1758785;81;21498;-77
2022/01/31 05:31:38;;;;;;;29.05;20.75;;;;;;;-0.34;100.00;99177.72;1748009;81;26599;-76
2022/01/31 05:34:05;;;;;;;26.57;19.42;;;;;;;-0.34;100.00;99182.02;1735533;80;21909;-77
2022/01/31 05:36:32;;;;;;;27.93;20.88;;;;;;;-0.35;100.00;99177.81;1747789;82;21058;-77
2022/01/31 05:38:59;;;;;;;29.07;20.02;;;;;;;-0.34;100.00;99179.00;1750000;81;21079;-77
2022/01/31 05:41:26;;;;;;;27.05;20.05;;;;;;;-0.34;100.00;99180.74;1741619;80;21128;-77
2022/01/31 05:43:52;;;;;;;24.25;17.80;;;;;;;-0.32;100.00;99183.59;1733341;80;21132;-77
2022/01/31 05:46:19;;;;;;;24.50;17.82;;;;;;;-0.33;100.00;99181.93;1753165;80;21041;-77
2022/01/31 05:48:46;;;;;;;23.38;17.60;;;;;;;-0.28;100.00;99185.99;1758520;81;21007;-76
2022/01/31 05:51:19;;;;;;;23.62;17.77;;;;;;;-0.25;100.00;99189.22;1757388;81;21002;-77
2022/01/31 05:53:49;;;;;;;25.75;17.37;;;;;;;-0.24;100.00;99192.59;1756511;81;21048;-77
2022/01/31 05:56:18;;;;;;;24.80;17.25;;;;;;;-0.24;100.00;99192.59;1728899;81;21055;-77
2022/01/31 05:58:45;;;;;;;20.62;15.50;;;;;;;-0.24;100.00;99193.86;1725684;81;21053;-77
2022/01/31 06:01:13;;;;;;;21.33;16.87;;;;;;;-0.22;100.00;99199.73;1732369;82;21038;-77
2022/01/31 06:03:41;;;;;;;21.90;17.30;;;;;;;-0.19;100.00;99200.83;1760261;80;21528;-76
2022/01/31 06:06:08;;;;;;;23.65;16.17;;;;;;;-0.18;100.00;99203.33;1753880;80;21080;-77
2022/01/31 06:08:35;;;;;;;23.73;17.40;;;;;;;-0.16;100.00;99202.77;1754339;81;21487;-77
2022/01/31 06:11:02;;;;;;;24.23;17.25;;;;;;;-0.12;100.00;99202.16;1748514;80;21009;-77
2022/01/31 06:13:33;;;;;;;20.23;15.93;;;;;;;-0.09;100.00;99205.84;1811353;78;21073;-77
2022/01/31 06:15:59;;;;;;;22.93;16.67;;;;;;;-0.06;100.00;99209.96;1751630;80;20978;-77
2022/01/31 06:18:27;;;;;;;22.05;16.95;;;;;;;-0.03;100.00;99205.50;1784681;80;20950;-77
2022/01/31 06:20:54;;;;;;;20.95;16.00;;;;;;;0.01;100.00;99201.52;1748517;80;21913;-78
2022/01/31 06:23:21;;;;;;;22.30;16.45;;;;;;;0.04;100.00;99207.76;1783918;80;21046;-77
2022/01/31 06:25:49;;;;;;;21.85;15.63;;;;;;;0.10;100.00;99196.71;1760572;80;21060;-76
2022/01/31 06:28:16;;;;;;;20.82;14.80;;;;;;;0.17;100.00;99199.77;1756688;80;21080;-77
2022/01/31 06:30:43;;;;;;;19.30;14.23;;;;;;;0.20;100.00;99208.55;1780806;78;20994;-77
2022/01/31 06:33:15;;;;;;;17.92;14.13;;;;;;;0.24;100.00;99208.77;1782162;79;21089;-77
2022/01/31 06:35:39;;;;;;;19.65;14.18;;;;;;;0.29;100.00;99208.05;1747262;80;21557;-76
2022/01/31 06:38:06;;;;;;;18.90;13.13;;;;;;;0.35;100.00;99212.48;1763186;79;21113;-77
2022/01/31 06:40:33;;;;;;;18.92;14.18;;;;;;;0.38;100.00;99204.17;1775370;78;21160;-77
2022/01/31 06:43:00;;;;;;;20.90;15.03;;;;;;;0.44;100.00;99199.17;1776417;78;21045;-77
2022/01/31 06:45:27;;;;;;;20.10;13.78;;;;;;;0.49;100.00;99196.33;1741886;80;21035;-77
2022/01/31 06:47:54;;;;;;;22.13;14.50;;;;;;;0.52;100.00;99196.98;1761616;80;21085;-76
2022/01/31 06:50:21;;;;;;;29.45;16.82;;;;;;;0.53;100.00;99191.41;1766721;79;21053;-78
2022/01/31 06:52:51;;;;;;;32.90;17.48;;;;;;;0.55;100.00;99200.66;1776526;78;21120;-78
2022/01/31 06:55:21;;;;;;;40.43;20.30;;;;;;;0.58;100.00;99194.09;1778129;78;21041;-77
2022/01/31 06:57:51;;;;;;;22.87;15.65;;;;;;;0.63;100.00;99194.64;1783101;80;21767;-77
2022/01/31 07:00:20;;;;;;;20.50;14.87;;;;;;;0.68;100.00;99191.83;1746062;80;21062;-77
2022/01/31 07:02:49;;;;;;;21.05;14.53;;;;;;;0.71;100.00;99189.09;1745060;82;21349;-78
2022/01/31 07:05:17;;;;;;;17.25;12.73;;;;;;;0.74;100.00;99186.81;1744909;82;21082;-77
2022/01/31 07:07:45;;;;;;;16.62;12.78;;;;;;;0.74;100.00;99189.38;1749203;80;21601;-77
2022/01/31 07:10:12;;;;;;;14.70;12.10;;;;;;;0.76;100.00;99189.65;1754285;81;22178;-78
2022/01/31 07:12:47;;;;;;;16.93;12.70;;;;;;;0.80;100.00;99195.89;1782290;80;21432;-77
2022/01/31 07:15:11;;;;;;;16.90;12.82;;;;;;;0.85;100.00;99194.70;1770616;80;21077;-77
2022/01/31 07:17:38;;;;;;;20.23;13.95;;;;;;;0.90;100.00;99189.30;1766455;80;21010;-77
2022/01/31 07:20:10;;;;;;;23.00;15.15;;;;;;;0.94;100.00;99190.80;1776497;80;21088;-77
2022/01/31 07:22:39;;;;;;;22.52;14.20;;;;;;;0.96;100.00;99186.84;1783370;80;21127;-78
2022/01/31 07:25:20;;;;;;;21.97;15.38;;;;;;;0.97;100.00;99188.03;1784559;80;21041;-78
2022/01/31 07:27:37;;;;;;;23.22;14.00;;;;;;;1.01;100.00;99187.39;1785301;78;21698;-77
2022/01/31 07:30:05;;;;;;;20.70;14.03;;;;;;;1.04;100.00;99183.38;1777296;78;21543;-76
2022/01/31 07:32:35;;;;;;;18.80;13.70;;;;;;;1.05;100.00;99194.01;1751935;80;21084;-77
2022/01/31 07:35:02;;;;;;;16.32;12.95;;;;;;;1.05;100.00;99196.58;1783079;78;21541;-77
2022/01/31 07:37:30;;;;;;;16.67;11.95;;;;;;;1.02;100.00;99192.45;1784156;79;20993;-77
2022/01/31 07:39:58;;;;;;;16.12;11.90;;;;;;;0.99;100.00;99191.81;1811665;79;21096;-77
2022/01/31 07:42:26;;;;;;;16.80;11.25;;;;;;;1.00;100.00;99199.88;1811819;78;21073;-77
2022/01/31 07:44:54;;;;;;;13.70;11.05;;;;;;;1.00;100.00;99198.13;1811285;79;21018;-77
2022/01/31 07:47:21;;;;;;;14.70;10.82;;;;;;;1.01;100.00;99204.06;1811910;78;21194;-77
2022/01/31 07:49:51;;;;;;;16.07;10.05;;;;;;;1.02;100.00;99198.02;1812041;79;21049;-76
2022/01/31 07:52:17;;;;;;;13.62;10.68;;;;;;;1.01;100.00;99210.03;1811294;78;21037;-77
2022/01/31 07:54:44;;;;;;;20.05;11.28;;;;;;;1.02;100.00;99207.00;1810492;79;21069;-77
2022/01/31 07:57:12;;;;;;;12.63;10.18;;;;;;;1.01;100.00;99208.75;1811396;79;21030;-77
2022/01/31 07:59:40;;;;;;;15.03;11.08;;;;;;;1.01;100.00;99215.59;1813441;78;21764;-77
2022/01/31 08:02:08;;;;;;;14.40;10.38;;;;;;;1.00;100.00;99205.00;1817211;78;21057;-77
2022/01/31 08:04:35;;;;;;;13.95;10.95;;;;;;;0.99;100.00;99210.56;1817539;78;21073;-77
2022/01/31 08:07:02;;;;;;;13.70;10.75;;;;;;;1.00;100.00;99210.13;1814838;78;21163;-77
2022/01/31 08:09:29;;;;;;;18.70;9.95;;;;;;;1.01;100.00;99209.19;1817529;78;21040;-77
2022/01/31 08:11:56;;;;;;;12.58;9.70;;;;;;;1.02;100.00;99207.00;1817363;78;21192;-77
2022/01/31 08:14:23;;;;;;;12.53;9.73;;;;;;;1.05;100.00;99205.55;1818040;78;21108;-78
2022/01/31 08:16:51;;;;;;;13.65;9.83;;;;;;;1.05;100.00;99202.52;1788087;78;21077;-78
2022/01/31 08:19:18;;;;;;;15.60;9.83;;;;;;;1.09;100.00;99204.44;1817546;78;21010;-79
2022/01/31 08:21:45;;;;;;;13.05;9.85;;;;;;;1.14;100.00;99201.17;1787658;78;21107;-78
2022/01/31 08:24:12;;;;;;;12.33;9.55;;;;;;;1.18;100.00;99205.19;1817168;78;21757;-78
2022/01/31 08:26:39;;;;;;;13.48;9.63;;;;;;;1.23;100.00;99195.95;1781416;80;21139;-78
2022/01/31 08:29:21;;;;;;;13.58;10.40;;;;;;;1.30;100.00;99195.95;1791513;80;21102;-78
2022/01/31 08:31:47;;;;;;;21.05;13.58;;;;;;;1.37;100.00;99198.98;1777480;80;20982;-77
2022/01/31 08:36:44;;;;;;;18.95;11.78;;;;;;;1.42;100.00;99196.95;1792672;80;21199;-77
2022/01/31 08:39:18;;;;;;;20.60;12.85;;;;;;;1.43;100.00;99196.04;1792571;80;21116;-77
2022/01/31 08:41:49;;;;;;;15.53;10.58;;;;;;;1.48;100.00;99194.48;1792767;80;21076;-77
2022/01/31 08:44:20;;;;;;;13.25;9.88;;;;;;;1.56;100.00;99187.96;1793299;80;21061;-77
2022/01/31 08:46:48;;;;;;;15.68;10.95;;;;;;;1.63;100.00;99180.73;1762721;80;22209;-77
2022/01/31 08:49:16;;;;;;;13.43;9.45;;;;;;;1.68;100.00;99178.69;1793056;80;21154;-77
2022/01/31 08:51:45;;;;;;;13.48;8.70;;;;;;;1.75;100.00;99184.28;1793238;80;21076;-76
2022/01/31 08:54:14;;;;;;;11.28;8.05;;;;;;;1.83;100.00;99176.94;1786984;79;21096;-77
2022/01/31 08:56:47;;;;;;;10.78;7.85;;;;;;;1.92;100.00;99176.00;1793407;80;21538;-77
2022/01/31 08:59:18;;;;;;;11.05;7.22;;;;;;;2.00;100.00;99163.52;1792589;80;21865;-78
2022/01/31 09:01:55;;;;;;;10.00;6.95;;;;;;;2.09;100.00;99174.94;1783324;80;21155;-78
2022/01/31 09:04:41;;;;;;;10.68;7.40;;;;;;;2.12;100.00;99183.30;1782055;79;21534;-78
2022/01/31 09:07:03;;;;;;;10.25;7.60;;;;;;;2.12;100.00;99181.17;1753960;80;21066;-78
2022/01/31 09:09:31;;;;;;;10.65;7.45;;;;;;;2.13;100.00;99183.64;1782114;79;21527;-79
2022/01/31 09:11:59;;;;;;;12.05;8.20;;;;;;;2.19;100.00;99178.58;1783134;80;20994;-78
2022/01/31 09:14:26;;;;;;;10.78;7.75;;;;;;;2.20;100.00;99178.48;1782661;80;21315;-78
2022/01/31 09:16:53;;;;;;;8.58;7.35;;;;;;;2.20;100.00;99180.23;1782866;79;21037;-78
2022/01/31 09:19:22;;;;;;;11.10;7.80;;;;;;;2.19;100.00;99180.70;1782934;79;21005;-78
2022/01/31 09:21:49;;;;;;;11.73;8.23;;;;;;;2.14;100.00;99181.44;1782990;80;21034;-78
2022/01/31 09:24:16;;;;;;;12.63;8.33;;;;;;;2.13;100.00;99178.50;1783000;80;21527;-78
2022/01/31 09:26:43;;;;;;;12.75;8.75;;;;;;;2.11;100.00;99179.08;1782977;80;21542;-78
2022/01/31 09:29:12;;;;;;;13.38;8.83;;;;;;;2.08;100.00;99179.27;1783093;80;21045;-79
2022/01/31 09:31:39;;;;;;;12.65;8.68;;;;;;;2.06;100.00;99182.38;1783420;80;21041;-79
2022/01/31 09:34:06;;;;;;;10.32;7.60;;;;;;;2.02;100.00;99183.51;1782405;80;21582;-79
2022/01/31 09:36:34;;;;;;;11.68;8.50;;;;;;;2.02;100.00;99179.18;1781225;80;21037;-79
2022/01/31 09:39:01;;;;;;;10.15;7.45;;;;;;;2.01;100.00;99178.00;1781974;80;21146;-79
2022/01/31 09:41:30;;;;;;;13.03;6.75;;;;;;;1.99;100.00;99179.39;1782048;80;21097;-79
2022/01/31 09:44:12;;;;;;;9.43;6.53;;;;;;;1.92;100.00;99180.70;1782640;80;21010;-78
2022/01/31 09:46:47;;;;;;;7.83;6.35;;;;;;;1.87;100.00;99178.86;1778978;80;21476;-79
2022/01/31 09:49:03;;;;;;;9.48;6.72;;;;;;;1.81;100.00;99182.62;1779743;80;21112;-79
2022/01/31 09:51:30;;;;;;;9.10;6.17;;;;;;;1.73;100.00;99179.26;1782922;80;21554;-78
2022/01/31 09:54:00;;;;;;;8.83;6.50;;;;;;;1.69;100.00;99177.78;1763624;80;21045;-79
2022/01/31 09:56:38;;;;;;;8.33;5.72;;;;;;;1.65;100.00;99188.33;1760839;80;21130;-79
2022/01/31 09:59:08;;;;;;;9.60;6.00;;;;;;;1.63;100.00;99188.89;1748952;80;21102;-80
2022/01/31 10:01:47;;;;;;;8.13;5.72;;;;;;;1.57;100.00;99181.92;1752688;80;21088;-79
2022/01/31 10:04:19;;;;;;;9.73;6.22;;;;;;;1.58;100.00;99186.14;1741551;81;21340;-78
2022/01/31 10:06:52;;;;;;;7.70;5.58;;;;;;;1.58;100.00;99181.48;1741158;81;21068;-80
2022/01/31 10:09:30;;;;;;;9.28;5.80;;;;;;;1.60;100.00;99174.96;1715852;82;21046;-78
2022/01/31 10:12:08;;;;;;;6.78;5.22;;;;;;;1.60;100.00;99169.38;1705679;82;21091;-79
2022/01/31 10:17:36;;;;;;;7.25;5.70;;;;;;;1.61;100.00;99175.33;1699652;84;21034;-79
2022/01/31 10:20:09;;;;;;;9.85;6.12;;;;;;;1.62;100.00;99177.79;1749258;82;21041;-79
2022/01/31 10:22:38;;;;;;;8.15;5.58;;;;;;;1.65;100.00;99172.92;1727715;81;21084;-80
2022/01/31 10:25:19;;;;;;;12.05;6.42;;;;;;;1.64;100.00;99175.97;1738682;81;21040;-80
2022/01/31 10:27:49;;;;;;;9.20;6.37;;;;;;;1.68;100.00;99168.90;1745086;81;21107;-80
2022/01/31 10:30:21;;;;;;;12.70;7.83;;;;;;;1.73;100.00;99177.13;1734593;82;22333;-78
2022/01/31 10:32:50;;;;;;;9.53;7.37;;;;;;;1.80;100.00;99180.16;1742188;81;21005;-78
2022/01/31 10:35:24;;;;;;;11.03;8.10;;;;;;;1.88;100.00;99186.45;1740183;81;21076;-77
2022/01/31 10:38:05;;;;;;;10.93;7.75;;;;;;;1.95;100.00;99177.92;1742548;81;21034;-78
2022/01/31 10:43:52;;;;;;;12.20;7.08;;;;;;;2.10;100.00;99180.44;1742539;82;21087;-78
2022/01/31 10:46:07;;;;;;;10.75;6.53;;;;;;;2.18;100.00;99169.23;1750015;81;20978;-78
2022/01/31 10:56:54;;;;;;;12.00;7.87;;;;;;;2.28;100.00;99163.88;1743140;82;21807;-79
2022/01/31 10:59:42;;;;;;;15.85;6.70;;;;;;;2.33;100.00;99168.72;1745618;80;21948;-78
2022/01/31 11:02:25;;;;;;;7.33;5.47;;;;;;;2.55;100.00;99175.04;1727543;82;21100;-77
2022/01/31 11:04:56;;;;;;;9.98;6.17;;;;;;;2.64;100.00;99167.58;1714873;82;21590;-81
2022/01/31 11:07:28;;;;;;;11.27;6.80;;;;;;;2.70;100.00;99171.47;1739269;81;21036;-79
2022/01/31 11:09:56;;;;;;;9.30;6.22;;;;;;;2.70;100.00;99170.19;1724102;81;21211;-80
2022/01/31 11:12:26;;;;;;;8.35;6.50;;;;;;;2.66;100.00;99168.75;1723368;83;21524;-79
2022/01/31 11:14:55;;;;;;;9.13;6.60;;;;;;;2.59;100.00;99171.36;1725537;81;21453;-81
2022/01/31 11:17:24;;;;;;;8.23;5.60;;;;;;;2.49;100.00;99169.38;1773914;79;21625;-80
2022/01/31 11:19:57;;;;;;;11.90;6.72;;;;;;;2.42;100.00;99178.41;1736252;80;21514;-77
2022/01/31 11:22:35;;;;;;;11.50;5.90;;;;;;;2.36;100.00;99180.09;1720136;82;22293;-79
2022/01/31 11:25:04;;;;;;;7.25;4.72;;;;;;;2.32;100.00;99181.20;1750344;81;21017;-80
2022/01/31 11:27:32;;;;;;;5.97;2.98;;;;;;;2.23;100.00;99181.78;1720144;81;21025;-80
2022/01/31 11:30:00;;;;;;;4.33;2.40;;;;;;;2.13;100.00;99185.40;1717516;81;21852;-80
2022/01/31 11:32:28;;;;;;;4.05;2.67;;;;;;;2.04;100.00;99189.38;1734719;80;21002;-76
2022/01/31 11:34:56;;;;;;;4.50;2.37;;;;;;;1.93;100.00;99193.06;1777517;80;21140;-79
2022/01/31 11:37:27;;;;;;;3.20;2.45;;;;;;;1.83;100.00;99188.96;1741885;82;21041;-80
2022/01/31 11:39:59;;;;;;;3.77;2.58;;;;;;;1.74;100.00;99189.05;1736644;81;21803;-80
2022/01/31 11:42:27;;;;;;;3.45;2.65;;;;;;;1.68;100.00;99197.12;1772134;80;21064;-79